Terminal Aerodrome Forecast
Issued by NWS Blacksburg, VA

Home | Current Version | Previous Version | Text Only | Print | Product List | Glossary On
Versions: 1 2 3 4 5 6 7 8 9 10 11 12 13 14 15 16 17 18 19 20 21
000
FTUS41 KRNK 300613 AAA
TAFROA
TAF AMD
KROA 300613Z 3006/3106 28004KT P6SM -SHRA OVC060
      TEMPO 3006/3007 2SM TSRA OVC030CB
     FM301000 26004KT P6SM BKN060
     FM301800 25004KT P6SM BKN040
      TEMPO 3018/3020 3SM TSRA OVC035CB
     FM310300 00000KT P6SM SCT120=

USA.gov is the U.S. government's official web portal to all federal, state and local government web resources and services.